createdAt,value
2023-03-26T02:36:39.085Z,642.00
2023-03-26T02:44:39.008Z,640.00
2023-03-26T02:52:39.100Z,640.00
2023-03-26T03:00:39.163Z,636.00
2023-03-26T03:08:39.273Z,634.00
2023-03-26T03:16:39.375Z,638.00
2023-03-26T03:24:39.379Z,633.00
2023-03-26T03:32:39.453Z,630.00
2023-03-26T03:40:39.500Z,623.00
2023-03-26T03:48:39.585Z,629.00
2023-03-26T03:56:39.765Z,629.00
2023-03-26T04:04:39.732Z,622.00
2023-03-26T04:12:39.789Z,614.00
2023-03-26T04:20:39.845Z,618.00
2023-03-26T04:28:39.881Z,620.00
2023-03-26T04:36:39.957Z,622.00
2023-03-26T04:44:40.051Z,618.00
2023-03-26T04:52:40.121Z,619.00
2023-03-26T05:00:40.178Z,612.00
2023-03-26T05:08:40.254Z,610.00
2023-03-26T05:16:40.400Z,609.00
2023-03-26T05:24:40.430Z,612.00
2023-03-26T05:32:40.611Z,609.00
2023-03-26T05:40:40.600Z,611.00
2023-03-26T05:48:40.708Z,617.00
2023-03-26T05:56:40.941Z,610.00
2023-03-26T06:04:41.065Z,606.00
2023-03-26T06:12:40.952Z,605.00
2023-03-26T06:20:41.025Z,601.00
2023-03-26T06:28:41.085Z,605.00
2023-03-26T06:36:41.153Z,600.00
2023-03-26T06:44:41.242Z,603.00
2023-03-26T06:52:41.323Z,595.00
2023-03-26T07:00:41.398Z,600.00
2023-03-26T07:08:41.485Z,601.00
2023-03-26T07:16:41.513Z,600.00
2023-03-26T07:24:41.498Z,599.00
2023-03-26T07:32:41.525Z,597.00
2023-03-26T07:40:41.510Z,596.00
2023-03-26T07:48:41.537Z,589.00
2023-03-26T07:56:41.639Z,588.00
2023-03-26T08:00:42.530Z,585.00
2023-03-26T08:04:42.626Z,590.00
2023-03-26T08:08:42.541Z,589.00
2023-03-26T08:12:42.528Z,581.00
2023-03-26T08:16:42.539Z,584.00
2023-03-26T08:20:42.554Z,589.00
2023-03-26T08:24:42.578Z,590.00
2023-03-26T08:28:42.542Z,588.00
2023-03-26T08:32:42.609Z,587.00
2023-03-26T08:36:42.565Z,586.00
2023-03-26T08:40:42.605Z,586.00
2023-03-26T08:44:42.588Z,589.00
2023-03-26T08:48:42.613Z,593.00
2023-03-26T08:52:42.638Z,589.00
2023-03-26T08:56:42.736Z,582.00
2023-03-26T09:00:42.676Z,587.00
2023-03-26T09:04:42.686Z,588.00
2023-03-26T09:08:53.756Z,586.00
2023-03-26T09:12:42.702Z,587.00
2023-03-26T09:16:42.669Z,583.00
2023-03-26T09:20:42.591Z,580.00
2023-03-26T09:24:42.567Z,583.00
2023-03-26T09:28:42.572Z,580.00
2023-03-26T09:32:42.485Z,578.00
2023-03-26T09:36:42.447Z,580.00
2023-03-26T09:40:42.422Z,581.00
2023-03-26T09:44:42.409Z,585.00
2023-03-26T09:48:42.340Z,583.00
2023-03-26T09:52:42.306Z,586.00
2023-03-26T09:56:42.319Z,587.00
2023-03-26T10:00:42.338Z,593.00
2023-03-26T10:04:42.281Z,584.00
2023-03-26T10:08:42.168Z,583.00
2023-03-26T10:12:42.121Z,582.00
2023-03-26T10:16:42.165Z,576.00
2023-03-26T10:20:42.050Z,577.00
2023-03-26T10:24:42.025Z,577.00
2023-03-26T10:28:41.974Z,583.00
2023-03-26T10:32:41.981Z,581.00
2023-03-26T10:36:41.893Z,576.00
2023-03-26T10:40:41.865Z,576.00
2023-03-26T10:44:41.824Z,572.00
2023-03-26T10:48:41.821Z,567.00
2023-03-26T10:52:41.760Z,571.00
2023-03-26T10:56:41.793Z,571.00
2023-03-26T11:00:41.681Z,572.00
2023-03-26T11:04:41.718Z,571.00
2023-03-26T11:08:41.682Z,573.00
2023-03-26T11:12:41.690Z,567.00
2023-03-26T11:16:41.691Z,571.00
2023-03-26T11:20:41.775Z,575.00
2023-03-26T11:24:41.693Z,571.00
2023-03-26T11:28:41.666Z,575.00
2023-03-26T11:32:41.652Z,571.00
2023-03-26T11:36:41.622Z,568.00
2023-03-26T11:40:41.579Z,571.00
2023-03-26T11:44:41.531Z,574.00
2023-03-26T11:48:41.486Z,571.00
2023-03-26T11:52:41.485Z,572.00
2023-03-26T11:56:41.520Z,568.00
2023-03-26T12:00:41.377Z,563.00
2023-03-26T12:04:41.423Z,563.00
2023-03-26T12:08:41.325Z,562.00
2023-03-26T12:12:41.257Z,559.00
2023-03-26T12:16:41.258Z,561.00
2023-03-26T12:20:41.195Z,564.00
2023-03-26T12:24:41.183Z,564.00
2023-03-26T12:28:42.955Z,562.00
2023-03-26T12:32:46.136Z,562.00
2023-03-26T12:36:41.040Z,560.00
2023-03-26T12:40:41.051Z,561.00
2023-03-26T12:44:56.464Z,562.00
2023-03-26T12:48:41.054Z,564.00
2023-03-26T12:52:40.892Z,561.00
2023-03-26T12:56:40.892Z,557.00
2023-03-26T13:00:40.819Z,562.00
2023-03-26T13:04:41.456Z,568.00
2023-03-26T13:08:40.752Z,565.00
2023-03-26T13:12:40.752Z,564.00
2023-03-26T13:16:40.719Z,562.00
2023-03-26T13:20:40.641Z,553.00
2023-03-26T13:24:40.613Z,554.00
2023-03-26T13:28:40.602Z,550.00
2023-03-26T13:32:40.578Z,549.00
2023-03-26T13:36:40.566Z,548.00
2023-03-26T13:40:40.459Z,548.00
2023-03-26T13:44:40.449Z,548.00
2023-03-26T13:48:40.390Z,549.00
2023-03-26T13:52:40.349Z,551.00
2023-03-26T13:56:42.180Z,552.00
2023-03-26T14:00:40.304Z,552.00
2023-03-26T14:04:40.242Z,546.00
2023-03-26T14:08:40.229Z,543.00
2023-03-26T14:12:40.169Z,546.00
2023-03-26T14:16:40.155Z,546.00
2023-03-26T14:20:40.118Z,541.00
2023-03-26T14:24:40.050Z,544.00
2023-03-26T14:28:40.016Z,546.00
2023-03-26T14:32:40.045Z,549.00
2023-03-26T14:36:39.943Z,544.00
2023-03-26T14:40:39.917Z,547.00
2023-03-26T14:44:47.979Z,547.00
2023-03-26T14:48:39.916Z,546.00
2023-03-26T14:52:39.805Z,544.00
2023-03-26T14:56:39.778Z,547.00
2023-03-26T15:00:39.796Z,547.00
2023-03-26T15:04:39.728Z,542.00
2023-03-26T15:08:39.658Z,539.00
2023-03-26T15:12:39.622Z,540.00
2023-03-26T15:16:39.646Z,539.00
2023-03-26T15:20:39.587Z,540.00
2023-03-26T15:24:39.510Z,536.00
2023-03-26T15:28:39.477Z,532.00
2023-03-26T15:32:39.506Z,535.00
2023-03-26T15:36:39.442Z,535.00
2023-03-26T15:40:39.381Z,532.00
2023-03-26T15:44:50.983Z,530.00
2023-03-26T15:48:39.311Z,530.00
2023-03-26T15:52:39.284Z,535.00
2023-03-26T15:56:39.289Z,531.00
2023-03-26T16:00:39.189Z,534.00
2023-03-26T16:04:39.159Z,535.00
2023-03-26T16:08:39.157Z,538.00
2023-03-26T16:12:39.071Z,537.00
2023-03-26T16:16:39.034Z,535.00
2023-03-26T16:20:39.658Z,532.00
2023-03-26T16:24:38.978Z,530.00
2023-03-26T16:28:38.924Z,530.00
2023-03-26T16:32:38.923Z,532.00
2023-03-26T16:36:38.869Z,533.00
2023-03-26T16:40:38.841Z,535.00
2023-03-26T16:44:38.781Z,534.00
2023-03-26T16:48:38.753Z,531.00
2023-03-26T16:52:38.701Z,534.00
2023-03-26T16:56:38.717Z,530.00
2023-03-26T17:00:38.628Z,528.00
2023-03-26T17:04:38.601Z,525.00
2023-03-26T17:08:38.584Z,529.00
2023-03-26T17:12:38.558Z,528.00
2023-03-26T17:16:38.514Z,530.00
2023-03-26T17:20:38.561Z,524.00
2023-03-26T17:24:38.643Z,530.00
2023-03-26T17:28:38.559Z,532.00
2023-03-26T17:32:38.684Z,524.00
2023-03-26T17:36:38.529Z,522.00
2023-03-26T17:40:38.496Z,527.00
2023-03-26T17:44:38.494Z,527.00
2023-03-26T17:48:38.428Z,522.00
2023-03-26T17:52:39.208Z,526.00
2023-03-26T17:56:38.402Z,529.00
2023-03-26T18:00:38.348Z,529.00
2023-03-26T18:04:38.290Z,529.00
2023-03-26T18:08:38.253Z,525.00
2023-03-26T18:12:38.215Z,526.00
2023-03-26T18:16:38.243Z,526.00
2023-03-26T18:20:38.143Z,529.00
2023-03-26T18:24:38.101Z,530.00
2023-03-26T18:28:38.070Z,527.00
2023-03-26T18:32:38.094Z,521.00
2023-03-26T18:36:38.004Z,520.00
2023-03-26T18:40:37.987Z,521.00
2023-03-26T18:44:38.002Z,521.00
2023-03-26T18:48:38.045Z,521.00
2023-03-26T18:52:38.030Z,524.00
2023-03-26T18:56:38.102Z,522.00
2023-03-26T19:00:38.081Z,518.00
2023-03-26T19:04:38.159Z,523.00
2023-03-26T19:08:38.133Z,518.00
2023-03-26T19:12:38.188Z,518.00
2023-03-26T19:16:38.261Z,520.00
2023-03-26T19:20:38.283Z,523.00
2023-03-26T19:24:38.304Z,517.00
2023-03-26T19:28:38.334Z,517.00
2023-03-26T19:32:38.376Z,515.00
2023-03-26T19:36:38.406Z,513.00
2023-03-26T19:40:38.407Z,516.00
2023-03-26T19:44:38.431Z,516.00
2023-03-26T19:48:45.277Z,516.00
2023-03-26T19:52:38.466Z,517.00
2023-03-26T19:56:38.445Z,518.00
2023-03-26T20:00:38.354Z,512.00
2023-03-26T20:04:38.322Z,515.00
2023-03-26T20:08:38.339Z,516.00
2023-03-26T20:12:38.253Z,518.00
2023-03-26T20:16:38.235Z,516.00
2023-03-26T20:20:38.180Z,515.00
2023-03-26T20:24:38.170Z,517.00
2023-03-26T20:28:47.361Z,517.00
2023-03-26T20:32:38.132Z,517.00
2023-03-26T20:36:38.395Z,522.00
2023-03-26T20:40:38.017Z,512.00
2023-03-26T20:44:37.987Z,516.00
2023-03-26T20:48:37.944Z,519.00
2023-03-26T20:52:37.886Z,519.00
2023-03-26T20:56:37.945Z,524.00
2023-03-26T21:00:37.890Z,517.00
2023-03-26T21:04:37.769Z,513.00
2023-03-26T21:08:37.811Z,514.00
2023-03-26T21:12:37.720Z,515.00
2023-03-26T21:16:37.794Z,518.00
2023-03-26T21:20:37.639Z,518.00
2023-03-26T21:24:37.623Z,517.00
2023-03-26T21:28:42.289Z,514.00
2023-03-26T21:32:37.644Z,516.00
2023-03-26T21:36:37.598Z,519.00
2023-03-26T21:40:39.048Z,518.00
2023-03-26T21:44:37.513Z,516.00
2023-03-26T21:48:37.486Z,518.00
2023-03-26T21:52:37.420Z,518.00
2023-03-26T21:56:37.419Z,518.00
2023-03-26T22:00:43.550Z,517.00
2023-03-26T22:04:37.303Z,523.00
2023-03-26T22:08:37.270Z,518.00
2023-03-26T22:12:37.235Z,519.00
2023-03-26T22:16:37.234Z,519.00
2023-03-26T22:20:37.160Z,516.00
2023-03-26T22:24:37.126Z,516.00
2023-03-26T22:28:37.153Z,518.00
2023-03-26T22:32:37.150Z,516.00
2023-03-26T22:36:39.041Z,519.00
2023-03-26T22:40:37.037Z,514.00
2023-03-26T22:44:36.940Z,513.00
2023-03-26T22:48:36.987Z,508.00
2023-03-26T22:52:36.916Z,504.00
2023-03-26T22:56:36.856Z,507.00
2023-03-26T23:00:36.815Z,506.00
